Time;durP1;ratioP1;P1;durP2;ratioP2;P2;SDS_P1;SDS_P2;PMS_P1;PMS_P2;Temp;Humidity;BMP_temperature;BMP_pressure;BME280_temperature;BME280_humidity;BME280_pressure;Samples;Min_cycle;Max_cycle;Signal;HPM_P1;HPM_P2
2023/05/20 00:00:30;;;;;;;5.65;2.95;;;;;;;;;;5066611;28;20025;-59
2023/05/20 00:02:56;;;;;;;4.35;2.60;;;;;;;;;;5072063;28;20093;-59
2023/05/20 00:05:22;;;;;;;4.07;2.50;;;;;;;;;;5070132;28;20504;-59
2023/05/20 00:07:47;;;;;;;6.07;2.70;;;;;;;;;;5071472;28;20032;-59
2023/05/20 00:10:12;;;;;;;5.18;2.40;;;;;;;;;;5070550;28;20487;-59
2023/05/20 00:12:38;;;;;;;5.85;2.92;;;;;;;;;;5072764;28;20032;-59
2023/05/20 00:15:04;;;;;;;5.28;2.40;;;;;;;;;;5073281;28;20024;-59
2023/05/20 00:17:30;;;;;;;4.85;2.70;;;;;;;;;;5072320;28;20032;-59
2023/05/20 00:19:55;;;;;;;4.90;2.70;;;;;;;;;;5064576;28;20641;-59
2023/05/20 00:22:21;;;;;;;3.88;2.40;;;;;;;;;;5070122;28;20385;-59
2023/05/20 00:24:46;;;;;;;4.15;2.60;;;;;;;;;;5072346;28;20028;-59
2023/05/20 00:27:11;;;;;;;5.30;2.60;;;;;;;;;;5071120;28;20039;-59
2023/05/20 00:29:37;;;;;;;3.88;2.50;;;;;;;;;;5052017;28;20035;-59
2023/05/20 00:32:02;;;;;;;8.68;2.60;;;;;;;;;;5067213;28;20032;-60
2023/05/20 00:34:27;;;;;;;5.30;2.60;;;;;;;;;;5069838;28;20032;-59
2023/05/20 00:36:53;;;;;;;3.58;2.50;;;;;;;;;;5071202;28;20034;-60
2023/05/20 00:39:18;;;;;;;5.65;2.70;;;;;;;;;;5070346;28;20048;-59
2023/05/20 00:41:44;;;;;;;4.68;2.40;;;;;;;;;;5071151;28;20101;-59
2023/05/20 00:44:09;;;;;;;5.10;2.75;;;;;;;;;;5072082;28;20045;-59
2023/05/20 00:46:34;;;;;;;4.45;2.70;;;;;;;;;;5071873;28;20460;-59
2023/05/20 00:49:00;;;;;;;5.40;2.50;;;;;;;;;;5070277;28;20024;-59
2023/05/20 00:51:26;;;;;;;6.55;2.60;;;;;;;;;;5072670;28;20402;-59
2023/05/20 00:53:52;;;;;;;8.68;2.90;;;;;;;;;;5056115;28;20036;-59
2023/05/20 00:56:17;;;;;;;4.68;2.45;;;;;;;;;;5071221;28;20077;-59
2023/05/20 00:58:43;;;;;;;5.90;2.90;;;;;;;;;;5069948;28;20077;-59
2023/05/20 01:01:08;;;;;;;6.78;2.70;;;;;;;;;;5070530;28;20054;-59
2023/05/20 01:03:34;;;;;;;4.68;2.60;;;;;;;;;;5070795;28;20146;-59
2023/05/20 01:06:00;;;;;;;5.20;2.40;;;;;;;;;;5069020;28;20040;-59
2023/05/20 01:08:26;;;;;;;5.18;2.85;;;;;;;;;;5071375;28;20036;-59
2023/05/20 01:11:35;;;;;;;6.25;2.83;;;;;;;;;;5068146;28;20047;-59
2023/05/20 01:14:05;;;;;;;4.53;2.40;;;;;;;;;;4986808;28;20165;-60
2023/05/20 01:16:32;;;;;;;9.47;2.70;;;;;;;;;;4989453;28;20045;-60
2023/05/20 01:18:59;;;;;;;4.32;2.58;;;;;;;;;;4976169;28;20059;-60
2023/05/20 01:21:26;;;;;;;4.13;2.60;;;;;;;;;;4978045;28;20038;-59
2023/05/20 01:23:51;;;;;;;4.55;2.65;;;;;;;;;;4987828;28;20038;-60
2023/05/20 01:26:18;;;;;;;5.47;2.67;;;;;;;;;;4986683;28;20057;-60
2023/05/20 01:28:43;;;;;;;3.70;2.40;;;;;;;;;;4972999;28;20045;-60
2023/05/20 01:31:14;;;;;;;6.10;2.60;;;;;;;;;;4989573;28;20046;-60
2023/05/20 01:33:41;;;;;;;4.50;2.60;;;;;;;;;;4988911;28;20177;-60
2023/05/20 01:36:08;;;;;;;4.30;2.42;;;;;;;;;;4985501;28;20152;-60
2023/05/20 01:38:35;;;;;;;4.85;2.70;;;;;;;;;;4975918;28;20057;-60
2023/05/20 01:41:03;;;;;;;5.30;2.67;;;;;;;;;;4988514;28;20042;-60
2023/05/20 01:43:29;;;;;;;6.88;2.80;;;;;;;;;;4961297;28;20138;-60
2023/05/20 01:45:54;;;;;;;4.78;2.88;;;;;;;;;;5066713;28;20113;-60
2023/05/20 01:48:20;;;;;;;4.75;2.72;;;;;;;;;;5069867;28;20453;-60
2023/05/20 01:50:45;;;;;;;4.95;3.00;;;;;;;;;;5069205;28;20033;-60
2023/05/20 01:53:12;;;;;;;4.28;2.80;;;;;;;;;;5070777;28;20107;-60
2023/05/20 01:55:37;;;;;;;7.20;2.85;;;;;;;;;;5070483;28;20032;-60
2023/05/20 01:58:03;;;;;;;4.72;2.70;;;;;;;;;;5068598;28;20025;-60
2023/05/20 02:00:28;;;;;;;5.18;2.80;;;;;;;;;;5070133;28;20449;-60
2023/05/20 02:02:55;;;;;;;4.75;2.55;;;;;;;;;;5069427;28;20111;-60
2023/05/20 02:05:20;;;;;;;5.68;2.78;;;;;;;;;;5069742;28;20472;-60
2023/05/20 02:07:45;;;;;;;7.65;3.00;;;;;;;;;;5070074;28;20036;-59
2023/05/20 02:10:11;;;;;;;5.20;3.00;;;;;;;;;;5069559;28;20427;-60
2023/05/20 02:12:36;;;;;;;4.50;2.80;;;;;;;;;;5070234;28;20032;-59
2023/05/20 02:15:02;;;;;;;7.72;3.00;;;;;;;;;;5069594;28;20717;-60
2023/05/20 02:17:28;;;;;;;4.45;2.83;;;;;;;;;;5071330;28;20469;-60
2023/05/20 02:19:53;;;;;;;4.60;3.05;;;;;;;;;;5065993;28;20048;-60
2023/05/20 02:22:18;;;;;;;4.82;2.80;;;;;;;;;;5066187;28;20029;-60
2023/05/20 02:24:44;;;;;;;8.45;3.05;;;;;;;;;;5071548;28;20024;-60
2023/05/20 02:27:10;;;;;;;4.32;2.60;;;;;;;;;;5073965;28;20032;-59
2023/05/20 02:29:35;;;;;;;6.07;3.00;;;;;;;;;;5074600;28;20406;-60
2023/05/20 02:32:01;;;;;;;4.57;2.78;;;;;;;;;;5072359;28;20037;-60
2023/05/20 02:34:27;;;;;;;6.88;2.80;;;;;;;;;;5071083;28;20097;-60
2023/05/20 02:36:53;;;;;;;7.82;3.00;;;;;;;;;;5073332;28;20040;-60
2023/05/20 02:39:18;;;;;;;4.53;2.70;;;;;;;;;;5074026;28;20048;-60
2023/05/20 02:41:44;;;;;;;6.40;2.95;;;;;;;;;;5073788;28;20097;-60
2023/05/20 02:44:10;;;;;;;7.70;3.00;;;;;;;;;;5070475;28;20053;-60
2023/05/20 02:46:36;;;;;;;4.55;2.80;;;;;;;;;;5075096;28;20078;-60
2023/05/20 02:49:01;;;;;;;5.72;3.08;;;;;;;;;;5072549;28;20357;-60
2023/05/20 02:51:26;;;;;;;4.72;2.70;;;;;;;;;;5068000;28;20029;-60
2023/05/20 02:53:52;;;;;;;6.10;2.83;;;;;;;;;;5060265;28;20516;-60
2023/05/20 02:56:20;;;;;;;5.90;2.88;;;;;;;;;;5072041;28;20079;-60
2023/05/20 02:58:46;;;;;;;6.85;2.95;;;;;;;;;;5059912;28;20465;-60
2023/05/20 03:01:11;;;;;;;8.55;3.10;;;;;;;;;;5054518;28;20032;-59
2023/05/20 03:03:37;;;;;;;5.35;3.05;;;;;;;;;;5061140;28;20028;-60
2023/05/20 03:06:02;;;;;;;5.50;3.17;;;;;;;;;;5056490;28;20113;-59
2023/05/20 03:08:28;;;;;;;6.13;3.00;;;;;;;;;;5068851;28;20445;-60
2023/05/20 03:10:53;;;;;;;5.45;3.00;;;;;;;;;;5061090;28;20393;-59
2023/05/20 03:13:19;;;;;;;5.13;2.97;;;;;;;;;;5054840;28;20098;-60
2023/05/20 03:15:44;;;;;;;7.80;3.17;;;;;;;;;;5066830;28;20036;-60
2023/05/20 03:18:11;;;;;;;5.28;3.13;;;;;;;;;;5072794;28;20056;-60
2023/05/20 03:20:37;;;;;;;6.13;3.05;;;;;;;;;;5073298;28;20473;-59
2023/05/20 03:23:03;;;;;;;4.78;3.03;;;;;;;;;;5070388;28;20028;-60
2023/05/20 03:25:29;;;;;;;9.25;3.30;;;;;;;;;;5071616;28;20064;-60
2023/05/20 03:27:54;;;;;;;7.60;3.28;;;;;;;;;;5072762;28;20056;-60
2023/05/20 03:30:20;;;;;;;5.85;3.20;;;;;;;;;;5074313;28;20036;-60
2023/05/20 03:32:45;;;;;;;7.85;3.13;;;;;;;;;;5068894;28;20040;-60
2023/05/20 03:35:11;;;;;;;6.05;2.97;;;;;;;;;;5070869;28;20044;-60
2023/05/20 03:37:36;;;;;;;5.22;2.95;;;;;;;;;;5062082;28;20028;-60
2023/05/20 03:40:05;;;;;;;6.47;3.20;;;;;;;;;;5071881;28;20382;-60
2023/05/20 03:42:34;;;;;;;6.10;3.17;;;;;;;;;;5069348;28;20059;-60
2023/05/20 03:44:59;;;;;;;5.30;3.20;;;;;;;;;;5070011;28;20054;-60
2023/05/20 03:47:25;;;;;;;4.70;2.90;;;;;;;;;;5071623;28;20032;-60
2023/05/20 03:49:51;;;;;;;5.32;3.03;;;;;;;;;;5068612;28;20047;-60
2023/05/20 03:52:16;;;;;;;5.53;3.20;;;;;;;;;;5059911;28;20423;-59
2023/05/20 03:54:42;;;;;;;4.93;3.30;;;;;;;;;;5071892;28;20024;-60
2023/05/20 03:57:09;;;;;;;7.82;3.13;;;;;;;;;;5070807;28;20043;-60
2023/05/20 03:59:34;;;;;;;5.50;3.28;;;;;;;;;;5072866;28;20068;-60
2023/05/20 04:02:00;;;;;;;5.07;3.05;;;;;;;;;;5071458;28;20485;-59
2023/05/20 04:04:26;;;;;;;5.72;3.22;;;;;;;;;;5069972;28;20094;-60
2023/05/20 04:06:53;;;;;;;5.85;3.13;;;;;;;;;;5070151;28;20032;-60
2023/05/20 04:09:18;;;;;;;4.38;3.08;;;;;;;;;;5071758;28;20032;-60
2023/05/20 04:11:44;;;;;;;4.88;3.30;;;;;;;;;;5072635;28;20024;-60
2023/05/20 04:14:10;;;;;;;6.95;3.60;;;;;;;;;;5069194;28;20059;-60
2023/05/20 04:16:36;;;;;;;5.25;3.25;;;;;;;;;;5067072;28;20036;-60
2023/05/20 04:19:02;;;;;;;6.28;3.45;;;;;;;;;;5066030;28;20044;-60
2023/05/20 04:21:27;;;;;;;6.38;3.40;;;;;;;;;;5062942;28;20047;-59
2023/05/20 04:23:53;;;;;;;5.90;3.30;;;;;;;;;;5063152;28;20025;-60
2023/05/20 04:26:19;;;;;;;6.47;3.30;;;;;;;;;;5066452;28;20028;-60
2023/05/20 04:28:47;;;;;;;6.78;3.22;;;;;;;;;;5073746;28;20115;-60
2023/05/20 04:31:13;;;;;;;5.50;3.17;;;;;;;;;;5072618;28;20060;-59
2023/05/20 04:33:38;;;;;;;6.88;3.17;;;;;;;;;;5057269;28;20063;-60
2023/05/20 04:36:06;;;;;;;6.93;3.58;;;;;;;;;;5072230;28;20047;-60
2023/05/20 04:38:32;;;;;;;4.35;3.20;;;;;;;;;;5072379;28;20526;-59
2023/05/20 04:40:59;;;;;;;7.07;3.33;;;;;;;;;;5071925;28;20049;-60
2023/05/20 04:43:28;;;;;;;5.97;3.42;;;;;;;;;;5071999;28;20032;-60
2023/05/20 04:45:54;;;;;;;6.50;3.45;;;;;;;;;;5057008;28;20056;-60
2023/05/20 04:48:21;;;;;;;5.47;3.40;;;;;;;;;;5072488;28;20067;-60
2023/05/20 04:50:47;;;;;;;8.25;3.30;;;;;;;;;;5072891;28;20468;-60
2023/05/20 04:53:13;;;;;;;6.45;3.55;;;;;;;;;;5071087;28;20089;-60
2023/05/20 04:55:38;;;;;;;6.10;3.03;;;;;;;;;;5072803;28;20036;-60
2023/05/20 04:58:04;;;;;;;6.93;3.30;;;;;;;;;;5071877;28;20033;-60
2023/05/20 05:00:29;;;;;;;5.68;3.50;;;;;;;;;;5070852;28;20060;-60
2023/05/20 05:02:55;;;;;;;6.75;3.50;;;;;;;;;;5070417;28;20123;-60
2023/05/20 05:05:20;;;;;;;7.72;3.33;;;;;;;;;;5070918;28;20028;-61
2023/05/20 05:07:46;;;;;;;7.10;3.60;;;;;;;;;;5072469;28;20029;-60
2023/05/20 05:10:11;;;;;;;6.13;3.40;;;;;;;;;;5066942;28;20534;-60
2023/05/20 05:12:37;;;;;;;4.28;3.10;;;;;;;;;;5053623;28;20040;-61
2023/05/20 05:15:02;;;;;;;4.95;3.38;;;;;;;;;;5071264;28;20055;-60
2023/05/20 05:17:28;;;;;;;5.20;3.30;;;;;;;;;;5053511;28;20077;-60
2023/05/20 05:19:53;;;;;;;7.75;3.45;;;;;;;;;;5071292;28;20400;-61
2023/05/20 05:22:19;;;;;;;6.95;3.15;;;;;;;;;;5069232;28;20033;-61
2023/05/20 05:24:44;;;;;;;7.75;3.45;;;;;;;;;;5072414;28;20028;-61
2023/05/20 05:27:10;;;;;;;6.45;3.83;;;;;;;;;;5070800;28;20036;-61
2023/05/20 05:29:35;;;;;;;6.25;3.58;;;;;;;;;;5072038;28;20025;-61
2023/05/20 05:32:00;;;;;;;5.60;3.75;;;;;;;;;;5070202;28;20575;-61
2023/05/20 05:34:26;;;;;;;6.57;3.20;;;;;;;;;;5071970;28;20038;-61
2023/05/20 05:36:51;;;;;;;5.82;3.33;;;;;;;;;;5071884;28;20465;-61
2023/05/20 05:39:17;;;;;;;5.22;3.78;;;;;;;;;;5071167;28;20119;-61
2023/05/20 05:41:42;;;;;;;8.65;3.47;;;;;;;;;;5071198;28;20036;-61
2023/05/20 05:44:07;;;;;;;7.55;3.75;;;;;;;;;;5060102;28;20064;-61
2023/05/20 05:46:33;;;;;;;7.10;3.65;;;;;;;;;;5070863;28;20032;-60
2023/05/20 05:48:58;;;;;;;6.20;3.83;;;;;;;;;;5076539;28;20037;-60
2023/05/20 05:51:26;;;;;;;6.82;3.60;;;;;;;;;;5066880;28;20470;-61
2023/05/20 05:53:52;;;;;;;6.47;3.70;;;;;;;;;;5070906;28;20032;-60
2023/05/20 05:56:17;;;;;;;6.10;3.50;;;;;;;;;;5070896;28;20024;-61
2023/05/20 05:58:43;;;;;;;6.20;3.85;;;;;;;;;;5070673;28;20513;-61
2023/05/20 06:01:08;;;;;;;5.18;3.55;;;;;;;;;;5080590;28;20043;-61
2023/05/20 06:03:33;;;;;;;6.20;3.88;;;;;;;;;;5079661;28;20119;-60
2023/05/20 06:05:59;;;;;;;6.75;3.60;;;;;;;;;;5074896;28;20098;-60
2023/05/20 06:08:25;;;;;;;7.72;4.00;;;;;;;;;;5052077;28;20401;-60
2023/05/20 06:10:50;;;;;;;5.25;3.70;;;;;;;;;;5051791;28;20029;-60
2023/05/20 06:13:16;;;;;;;6.13;4.00;;;;;;;;;;5058475;28;20540;-60
2023/05/20 06:15:42;;;;;;;7.05;3.95;;;;;;;;;;5070983;28;20032;-60
2023/05/20 06:18:07;;;;;;;7.18;3.97;;;;;;;;;;5071024;28;20112;-60
2023/05/20 06:20:33;;;;;;;6.20;3.80;;;;;;;;;;5067240;28;20029;-60
2023/05/20 06:22:58;;;;;;;7.57;4.00;;;;;;;;;;5059069;28;20032;-61
2023/05/20 06:25:24;;;;;;;6.40;3.75;;;;;;;;;;5071225;28;20115;-60
2023/05/20 06:27:50;;;;;;;5.93;3.65;;;;;;;;;;5071076;28;20116;-61
2023/05/20 06:30:15;;;;;;;6.95;4.03;;;;;;;;;;5069563;28;20391;-61
2023/05/20 06:32:41;;;;;;;7.00;4.13;;;;;;;;;;5069672;28;20034;-60
2023/05/20 06:35:07;;;;;;;7.18;3.97;;;;;;;;;;5060010;28;20029;-61
2023/05/20 06:37:32;;;;;;;6.57;3.80;;;;;;;;;;5064605;28;20475;-59
2023/05/20 06:39:58;;;;;;;6.90;4.28;;;;;;;;;;5071079;28;20107;-60
2023/05/20 06:42:23;;;;;;;6.88;4.05;;;;;;;;;;5071061;28;20033;-60
2023/05/20 06:44:49;;;;;;;7.82;4.22;;;;;;;;;;5071435;28;20032;-60
2023/05/20 06:47:15;;;;;;;5.90;4.20;;;;;;;;;;5070534;28;20064;-61
2023/05/20 06:49:42;;;;;;;7.25;4.60;;;;;;;;;;5071095;28;20116;-60
2023/05/20 06:52:08;;;;;;;8.02;4.40;;;;;;;;;;5069006;28;20043;-61
2023/05/20 06:54:38;;;;;;;6.47;4.18;;;;;;;;;;5051887;28;20037;-61
2023/05/20 06:57:05;;;;;;;5.68;4.20;;;;;;;;;;5059235;28;20040;-60
2023/05/20 06:59:30;;;;;;;5.65;3.83;;;;;;;;;;5070446;28;20036;-61
2023/05/20 07:01:55;;;;;;;6.25;4.13;;;;;;;;;;5055634;28;20078;-60
2023/05/20 07:04:21;;;;;;;6.05;4.05;;;;;;;;;;5050376;28;20598;-60
2023/05/20 07:06:46;;;;;;;7.13;4.25;;;;;;;;;;5051233;28;20025;-60
2023/05/20 07:09:11;;;;;;;6.30;4.22;;;;;;;;;;5051503;28;20025;-61
2023/05/20 07:11:37;;;;;;;7.40;4.75;;;;;;;;;;5065076;28;20024;-61
2023/05/20 07:14:02;;;;;;;9.45;4.95;;;;;;;;;;5072896;28;20499;-61
2023/05/20 07:16:28;;;;;;;8.73;4.50;;;;;;;;;;5073766;28;20036;-62
2023/05/20 07:18:53;;;;;;;7.28;4.50;;;;;;;;;;5070683;28;20028;-61
2023/05/20 07:21:19;;;;;;;7.57;4.40;;;;;;;;;;5069486;28;20396;-61
2023/05/20 07:23:45;;;;;;;6.30;4.70;;;;;;;;;;5074589;28;20025;-61
2023/05/20 07:26:10;;;;;;;7.00;4.70;;;;;;;;;;5061208;28;20378;-61
2023/05/20 07:28:37;;;;;;;7.80;4.63;;;;;;;;;;5073866;28;20036;-61
2023/05/20 07:31:02;;;;;;;7.85;4.78;;;;;;;;;;5073658;28;20037;-61
2023/05/20 07:33:28;;;;;;;6.68;4.97;;;;;;;;;;5072343;28;20113;-60
2023/05/20 07:35:54;;;;;;;7.40;5.00;;;;;;;;;;5074262;28;20469;-61
2023/05/20 07:38:20;;;;;;;8.80;4.63;;;;;;;;;;5072489;28;20041;-60
2023/05/20 07:40:45;;;;;;;8.20;5.10;;;;;;;;;;5072284;28;20051;-61
2023/05/20 07:43:11;;;;;;;8.38;5.03;;;;;;;;;;5076417;28;20032;-60
2023/05/20 07:45:36;;;;;;;7.40;4.90;;;;;;;;;;5094657;28;20089;-60
2023/05/20 07:48:03;;;;;;;8.05;5.00;;;;;;;;;;5084174;28;20028;-61
2023/05/20 07:50:28;;;;;;;8.95;5.40;;;;;;;;;;5090780;28;20025;-60
2023/05/20 07:52:54;;;;;;;7.88;5.35;;;;;;;;;;5059400;28;20040;-60
2023/05/20 07:55:19;;;;;;;8.90;5.07;;;;;;;;;;5053587;28;20116;-60
2023/05/20 07:57:45;;;;;;;7.72;5.10;;;;;;;;;;5056776;28;20032;-61
2023/05/20 08:00:11;;;;;;;7.32;4.70;;;;;;;;;;5059902;28;20021;-61
2023/05/20 08:02:36;;;;;;;8.52;5.13;;;;;;;;;;5074087;28;20453;-60
2023/05/20 08:05:02;;;;;;;8.95;5.13;;;;;;;;;;5070918;28;20116;-60
2023/05/20 08:07:27;;;;;;;6.30;4.57;;;;;;;;;;5058640;28;20056;-60
2023/05/20 08:09:52;;;;;;;8.25;5.10;;;;;;;;;;5066188;28;20373;-60
2023/05/20 08:12:18;;;;;;;6.60;4.60;;;;;;;;;;5071576;28;20032;-60
2023/05/20 08:14:44;;;;;;;7.55;4.95;;;;;;;;;;5074018;28;20047;-60
2023/05/20 08:17:09;;;;;;;7.30;5.05;;;;;;;;;;5072922;28;20457;-61
2023/05/20 08:19:35;;;;;;;6.03;4.60;;;;;;;;;;5073907;28;20388;-60
2023/05/20 08:22:00;;;;;;;8.13;5.35;;;;;;;;;;5065959;28;20063;-60
2023/05/20 08:24:25;;;;;;;11.00;5.30;;;;;;;;;;5052481;28;20247;-60
2023/05/20 08:26:51;;;;;;;8.38;5.30;;;;;;;;;;5053342;28;20033;-61
2023/05/20 08:29:16;;;;;;;8.27;5.07;;;;;;;;;;5055209;28;20045;-59
2023/05/20 08:31:42;;;;;;;11.98;5.22;;;;;;;;;;5070813;28;20035;-60
2023/05/20 08:34:07;;;;;;;6.55;5.18;;;;;;;;;;5064742;28;20040;-61
2023/05/20 08:36:33;;;;;;;8.48;5.57;;;;;;;;;;5053298;28;20119;-59
2023/05/20 08:38:59;;;;;;;8.52;5.55;;;;;;;;;;5061833;28;20048;-60
2023/05/20 08:41:24;;;;;;;8.30;5.70;;;;;;;;;;5070917;28;20125;-59
2023/05/20 08:43:50;;;;;;;8.98;5.57;;;;;;;;;;5071457;28;20024;-60
2023/05/20 08:46:17;;;;;;;8.27;4.90;;;;;;;;;;5071761;28;20127;-61
2023/05/20 08:48:43;;;;;;;7.20;5.30;;;;;;;;;;5072732;28;20037;-60
2023/05/20 08:51:12;;;;;;;9.45;5.70;;;;;;;;;;5072396;28;20029;-61
2023/05/20 08:53:38;;;;;;;8.45;5.05;;;;;;;;;;5066883;28;20025;-60
2023/05/20 08:56:05;;;;;;;7.82;5.60;;;;;;;;;;5062289;28;20027;-60
2023/05/20 08:58:33;;;;;;;7.85;5.50;;;;;;;;;;5072006;28;20094;-61
2023/05/20 09:00:59;;;;;;;8.95;5.63;;;;;;;;;;5071571;28;20032;-60
2023/05/20 09:03:25;;;;;;;8.13;5.50;;;;;;;;;;5071274;28;20032;-60
2023/05/20 09:05:52;;;;;;;9.05;5.70;;;;;;;;;;5072541;28;20098;-61
2023/05/20 09:08:23;;;;;;;10.63;6.30;;;;;;;;;;5071824;28;20029;-60
2023/05/20 09:10:51;;;;;;;7.53;5.50;;;;;;;;;;5071127;28;20032;-60
2023/05/20 09:13:16;;;;;;;8.95;5.68;;;;;;;;;;5069728;28;20068;-60
2023/05/20 09:15:42;;;;;;;8.45;5.78;;;;;;;;;;5064233;28;20060;-60
2023/05/20 09:18:07;;;;;;;8.00;5.75;;;;;;;;;;5055869;28;20041;-60
2023/05/20 09:20:35;;;;;;;11.63;5.75;;;;;;;;;;5069861;28;20049;-60
2023/05/20 09:23:03;;;;;;;7.00;5.15;;;;;;;;;;5057641;28;20037;-60
2023/05/20 09:25:28;;;;;;;8.85;5.70;;;;;;;;;;5079121;28;20499;-60
2023/05/20 09:27:54;;;;;;;8.50;5.53;;;;;;;;;;5071838;28;20041;-60
2023/05/20 09:30:21;;;;;;;8.68;5.00;;;;;;;;;;5071136;28;20361;-60
2023/05/20 09:33:00;;;;;;;11.38;5.65;;;;;;;;;;5070953;28;20532;-60
2023/05/20 09:35:26;;;;;;;9.98;5.47;;;;;;;;;;5070132;28;20461;-60
2023/05/20 09:37:57;;;;;;;7.53;5.00;;;;;;;;;;5071498;28;20036;-60
2023/05/20 09:40:25;;;;;;;8.25;5.00;;;;;;;;;;5083290;28;20040;-59
2023/05/20 09:42:55;;;;;;;7.55;5.40;;;;;;;;;;5071020;28;20041;-59
2023/05/20 09:45:21;;;;;;;7.13;5.32;;;;;;;;;;5074198;28;20486;-59
2023/05/20 09:47:50;;;;;;;7.63;5.10;;;;;;;;;;5072678;28;20515;-59
2023/05/20 09:50:16;;;;;;;7.07;4.80;;;;;;;;;;5071177;28;20028;-59
2023/05/20 09:52:42;;;;;;;7.13;4.93;;;;;;;;;;5069298;28;20031;-60
2023/05/20 09:55:12;;;;;;;7.03;4.72;;;;;;;;;;5068575;28;20068;-60
2023/05/20 09:57:37;;;;;;;7.75;5.20;;;;;;;;;;5071576;28;20067;-60
2023/05/20 10:00:05;;;;;;;8.65;4.72;;;;;;;;;;5071948;28;20060;-60
2023/05/20 10:02:31;;;;;;;8.27;5.18;;;;;;;;;;5070950;28;20120;-60
2023/05/20 10:04:59;;;;;;;9.80;5.07;;;;;;;;;;5070382;28;20020;-60
2023/05/20 10:07:28;;;;;;;8.38;4.97;;;;;;;;;;5071126;28;20039;-60
2023/05/20 10:10:31;;;;;;;7.95;4.63;;;;;;;;;;5071163;28;20457;-59
2023/05/20 10:13:03;;;;;;;7.20;5.00;;;;;;;;;;5068862;28;20476;-60
2023/05/20 10:15:59;;;;;;;8.02;5.18;;;;;;;;;;5052306;28;20362;-60
2023/05/20 10:18:54;;;;;;;8.68;4.90;;;;;;;;;;5071203;28;20048;-60
2023/05/20 10:21:23;;;;;;;8.70;5.20;;;;;;;;;;5070807;28;20055;-60
2023/05/20 10:23:49;;;;;;;6.93;4.72;;;;;;;;;;5069938;28;20033;-60
2023/05/20 10:26:14;;;;;;;9.07;5.35;;;;;;;;;;5056461;28;20036;-59
2023/05/20 10:28:40;;;;;;;6.93;5.07;;;;;;;;;;5071487;28;20031;-60
2023/05/20 10:31:24;;;;;;;7.18;4.82;;;;;;;;;;5070923;28;20107;-59
2023/05/20 10:33:52;;;;;;;7.60;5.38;;;;;;;;;;5062403;28;20033;-60
2023/05/20 10:36:29;;;;;;;9.20;4.93;;;;;;;;;;5050803;28;20082;-60
2023/05/20 10:38:57;;;;;;;7.28;5.55;;;;;;;;;;5065355;28;20115;-60
2023/05/20 10:41:27;;;;;;;6.68;5.10;;;;;;;;;;5070733;28;20037;-60
2023/05/20 10:44:05;;;;;;;8.27;5.32;;;;;;;;;;5071281;28;20047;-59
2023/05/20 10:46:32;;;;;;;8.50;5.22;;;;;;;;;;5073806;28;20024;-60
2023/05/20 10:48:58;;;;;;;8.98;5.22;;;;;;;;;;5055286;28;20033;-60
2023/05/20 10:51:24;;;;;;;7.85;5.57;;;;;;;;;;5058272;28;20032;-60
2023/05/20 10:53:54;;;;;;;7.22;5.43;;;;;;;;;;5057447;28;20049;-60
2023/05/20 10:56:24;;;;;;;7.68;5.13;;;;;;;;;;5073594;28;20032;-60
2023/05/20 10:58:51;;;;;;;8.88;5.90;;;;;;;;;;5074385;28;20032;-60
2023/05/20 11:01:17;;;;;;;9.80;5.57;;;;;;;;;;5074570;28;20036;-60
2023/05/20 11:03:45;;;;;;;6.93;5.43;;;;;;;;;;5073997;28;20034;-61
2023/05/20 11:06:16;;;;;;;7.25;5.00;;;;;;;;;;5073757;28;20149;-60
2023/05/20 11:08:43;;;;;;;11.38;5.60;;;;;;;;;;5074601;28;20028;-60
2023/05/20 11:11:10;;;;;;;6.40;5.05;;;;;;;;;;5074789;28;20036;-61
2023/05/20 11:13:35;;;;;;;7.38;5.40;;;;;;;;;;5072153;28;20020;-61
2023/05/20 11:16:01;;;;;;;9.48;4.80;;;;;;;;;;5072556;28;20032;-60
2023/05/20 11:18:30;;;;;;;6.75;4.50;;;;;;;;;;5073964;28;20519;-60
2023/05/20 11:21:00;;;;;;;8.43;4.88;;;;;;;;;;5074767;28;20526;-60
2023/05/20 11:23:27;;;;;;;9.18;5.25;;;;;;;;;;5071539;28;20032;-60
2023/05/20 11:25:54;;;;;;;6.95;5.00;;;;;;;;;;5073384;28;20481;-60
2023/05/20 11:28:20;;;;;;;6.97;4.70;;;;;;;;;;5067793;28;20120;-60
2023/05/20 11:30:46;;;;;;;6.65;5.20;;;;;;;;;;5067743;28;20115;-60
2023/05/20 11:33:13;;;;;;;5.90;4.60;;;;;;;;;;5072596;28;20123;-60
2023/05/20 11:35:46;;;;;;;5.60;4.18;;;;;;;;;;5055432;28;20036;-60
2023/05/20 11:38:11;;;;;;;6.55;4.15;;;;;;;;;;5071587;28;20036;-61
2023/05/20 11:40:42;;;;;;;7.13;4.00;;;;;;;;;;5067391;28;20051;-60
2023/05/20 11:43:10;;;;;;;6.03;3.83;;;;;;;;;;5070558;28;20036;-61
2023/05/20 11:45:43;;;;;;;5.57;4.13;;;;;;;;;;5070673;28;20024;-61
2023/05/20 11:48:10;;;;;;;6.03;3.95;;;;;;;;;;5069049;28;20115;-61
2023/05/20 11:50:43;;;;;;;5.55;3.80;;;;;;;;;;5059388;28;20074;-60
2023/05/20 11:53:10;;;;;;;6.78;3.92;;;;;;;;;;5064711;28;20045;-61
2023/05/20 11:55:50;;;;;;;7.55;4.18;;;;;;;;;;5070719;28;20041;-60
2023/05/20 11:58:18;;;;;;;7.28;4.18;;;;;;;;;;5056369;28;20032;-60
2023/05/20 12:00:43;;;;;;;11.90;4.65;;;;;;;;;;5054871;28;20062;-61
2023/05/20 12:03:10;;;;;;;5.57;4.20;;;;;;;;;;5058896;28;20028;-61
2023/05/20 12:05:36;;;;;;;5.20;3.80;;;;;;;;;;5071413;28;20029;-61
2023/05/20 12:08:02;;;;;;;8.02;3.97;;;;;;;;;;5066258;28;20037;-61
2023/05/20 12:10:27;;;;;;;5.35;4.03;;;;;;;;;;5052574;28;20369;-61
2023/05/20 12:12:52;;;;;;;6.38;3.97;;;;;;;;;;5072088;28;20029;-61
2023/05/20 12:15:18;;;;;;;4.65;3.90;;;;;;;;;;5070173;28;20035;-61
2023/05/20 12:17:45;;;;;;;7.93;4.03;;;;;;;;;;5072015;28;20475;-61
2023/05/20 12:20:14;;;;;;;5.57;3.60;;;;;;;;;;5071814;28;20040;-61
2023/05/20 12:22:39;;;;;;;5.82;4.20;;;;;;;;;;5071259;28;20028;-61
2023/05/20 12:25:05;;;;;;;6.05;3.78;;;;;;;;;;5059421;28;20041;-60
2023/05/20 12:27:30;;;;;;;7.93;3.90;;;;;;;;;;5062431;28;20162;-60
2023/05/20 12:29:55;;;;;;;5.43;3.80;;;;;;;;;;5073392;28;20029;-60
2023/05/20 12:32:22;;;;;;;5.63;4.05;;;;;;;;;;5071101;28;20037;-60
2023/05/20 12:34:47;;;;;;;5.45;3.80;;;;;;;;;;5052249;28;20426;-60
2023/05/20 12:37:13;;;;;;;5.72;3.60;;;;;;;;;;5064389;28;20067;-60
2023/05/20 12:39:38;;;;;;;4.82;3.60;;;;;;;;;;5071818;28;20120;-60
2023/05/20 12:42:04;;;;;;;6.45;3.70;;;;;;;;;;5072833;28;20538;-60
2023/05/20 12:44:29;;;;;;;7.35;3.70;;;;;;;;;;5070754;28;20028;-60
2023/05/20 12:46:55;;;;;;;6.70;3.40;;;;;;;;;;5072973;28;20024;-60
2023/05/20 12:49:20;;;;;;;6.65;3.60;;;;;;;;;;5072656;28;20029;-61
2023/05/20 12:51:46;;;;;;;5.28;3.40;;;;;;;;;;5060688;28;20035;-60
2023/05/20 12:54:11;;;;;;;5.10;3.47;;;;;;;;;;5062626;28;20089;-61
2023/05/20 12:56:36;;;;;;;4.68;3.50;;;;;;;;;;5063418;28;20093;-60
2023/05/20 12:59:02;;;;;;;3.90;3.20;;;;;;;;;;5071979;28;20039;-60
2023/05/20 13:01:28;;;;;;;5.03;3.28;;;;;;;;;;5070998;28;20166;-60
2023/05/20 13:03:54;;;;;;;5.35;3.20;;;;;;;;;;5070375;28;20033;-60
2023/05/20 13:06:19;;;;;;;4.75;3.20;;;;;;;;;;5070323;28;20115;-61
2023/05/20 13:08:45;;;;;;;4.60;3.25;;;;;;;;;;5091854;28;20579;-61
2023/05/20 13:11:10;;;;;;;4.47;3.33;;;;;;;;;;5078722;28;20041;-61
2023/05/20 13:13:36;;;;;;;4.13;2.97;;;;;;;;;;5069472;28;20423;-61
2023/05/20 13:16:01;;;;;;;4.57;3.08;;;;;;;;;;5074294;28;20388;-61
2023/05/20 13:18:27;;;;;;;4.00;3.00;;;;;;;;;;5071366;28;20032;-61
2023/05/20 13:20:52;;;;;;;4.75;2.85;;;;;;;;;;5070821;28;20487;-61
2023/05/20 13:23:17;;;;;;;4.68;3.00;;;;;;;;;;5068358;28;20070;-61
2023/05/20 13:25:43;;;;;;;6.65;2.88;;;;;;;;;;5062440;28;20017;-60
2023/05/20 13:28:11;;;;;;;4.38;2.70;;;;;;;;;;5051912;28;20389;-61
2023/05/20 13:30:36;;;;;;;3.22;2.60;;;;;;;;;;5071031;28;20025;-61
2023/05/20 13:33:02;;;;;;;3.92;2.92;;;;;;;;;;5070629;28;20357;-61
2023/05/20 13:35:27;;;;;;;4.30;2.90;;;;;;;;;;5063172;28;20029;-61
2023/05/20 13:37:53;;;;;;;7.53;3.15;;;;;;;;;;5071782;28;20032;-61
2023/05/20 13:40:18;;;;;;;4.38;3.20;;;;;;;;;;5059641;28;20075;-61
2023/05/20 13:42:43;;;;;;;4.63;3.20;;;;;;;;;;5053942;28;20099;-60
2023/05/20 13:45:09;;;;;;;5.15;3.28;;;;;;;;;;5064402;28;20073;-60
2023/05/20 13:47:35;;;;;;;4.55;3.10;;;;;;;;;;5071342;28;20036;-61
2023/05/20 13:50:00;;;;;;;4.93;3.08;;;;;;;;;;5071932;28;20028;-61
2023/05/20 13:52:25;;;;;;;5.20;3.15;;;;;;;;;;5067573;28;20033;-60
2023/05/20 13:54:51;;;;;;;3.92;3.13;;;;;;;;;;5071557;28;20078;-61
2023/05/20 13:57:16;;;;;;;4.55;3.03;;;;;;;;;;5071749;28;20438;-61
2023/05/20 13:59:42;;;;;;;7.10;3.30;;;;;;;;;;5056347;28;20036;-61
2023/05/20 14:02:07;;;;;;;8.75;3.33;;;;;;;;;;5051589;28;20037;-62
2023/05/20 14:04:39;;;;;;;4.40;3.15;;;;;;;;;;5051184;28;20029;-61
2023/05/20 14:07:05;;;;;;;6.82;2.97;;;;;;;;;;5059379;28;20027;-61
2023/05/20 14:09:30;;;;;;;4.45;2.90;;;;;;;;;;5071123;28;20025;-61
2023/05/20 14:11:56;;;;;;;4.40;3.20;;;;;;;;;;5070778;28;20058;-61
2023/05/20 14:14:21;;;;;;;4.97;3.17;;;;;;;;;;5068288;28;20036;-61
2023/05/20 14:16:47;;;;;;;4.55;3.30;;;;;;;;;;5068342;28;20271;-61
2023/05/20 14:19:12;;;;;;;6.03;3.67;;;;;;;;;;5068787;28;20056;-61
2023/05/20 14:21:37;;;;;;;4.45;3.22;;;;;;;;;;5069105;28;20107;-61
2023/05/20 14:24:03;;;;;;;5.53;3.35;;;;;;;;;;5070300;28;20035;-60
2023/05/20 14:26:28;;;;;;;6.13;3.50;;;;;;;;;;5063136;28;20037;-60
2023/05/20 14:28:54;;;;;;;6.38;3.70;;;;;;;;;;5070886;28;20067;-60
2023/05/20 14:31:19;;;;;;;5.72;3.33;;;;;;;;;;5069844;28;20078;-61
2023/05/20 14:33:45;;;;;;;4.43;3.35;;;;;;;;;;5070451;28;20301;-60
2023/05/20 14:36:10;;;;;;;5.20;3.50;;;;;;;;;;5071162;28;20036;-60
2023/05/20 14:38:36;;;;;;;5.05;3.50;;;;;;;;;;5070421;28;20020;-61